sensor_id;sensor_type;location;lat;lon;timestamp;P1;durP1;ratioP1;P2;durP2;ratioP2
18720;SDS011;9489;50.948;3.114;2023-10-08T00:00:42;6.97;;;4.97;;
18720;SDS011;9489;50.948;3.114;2023-10-08T00:03:13;6.63;;;4.60;;
18720;SDS011;9489;50.948;3.114;2023-10-08T00:05:39;7.70;;;4.55;;
18720;SDS011;9489;50.948;3.114;2023-10-08T00:08:06;6.10;;;4.28;;
18720;SDS011;9489;50.948;3.114;2023-10-08T00:10:34;8.23;;;4.75;;
18720;SDS011;9489;50.948;3.114;2023-10-08T00:13:06;10.27;;;4.95;;
18720;SDS011;9489;50.948;3.114;2023-10-08T00:15:37;7.10;;;4.97;;
18720;SDS011;9489;50.948;3.114;2023-10-08T00:18:06;8.02;;;5.00;;
18720;SDS011;9489;50.948;3.114;2023-10-08T00:20:36;7.10;;;4.95;;
18720;SDS011;9489;50.948;3.114;2023-10-08T00:23:19;5.85;;;4.68;;
18720;SDS011;9489;50.948;3.114;2023-10-08T00:25:46;5.75;;;4.28;;
18720;SDS011;9489;50.948;3.114;2023-10-08T00:28:12;5.85;;;4.50;;
18720;SDS011;9489;50.948;3.114;2023-10-08T00:30:40;6.65;;;4.95;;
18720;SDS011;9489;50.948;3.114;2023-10-08T00:33:09;7.10;;;4.63;;
18720;SDS011;9489;50.948;3.114;2023-10-08T00:35:38;5.45;;;4.95;;
18720;SDS011;9489;50.948;3.114;2023-10-08T00:38:06;7.03;;;4.68;;
18720;SDS011;9489;50.948;3.114;2023-10-08T00:40:45;12.18;;;7.10;;
18720;SDS011;9489;50.948;3.114;2023-10-08T00:43:32;5.88;;;4.97;;
18720;SDS011;9489;50.948;3.114;2023-10-08T00:46:04;9.07;;;4.63;;
18720;SDS011;9489;50.948;3.114;2023-10-08T00:48:43;8.65;;;4.95;;
18720;SDS011;9489;50.948;3.114;2023-10-08T00:51:11;5.45;;;4.85;;
18720;SDS011;9489;50.948;3.114;2023-10-08T00:53:46;7.03;;;4.75;;
18720;SDS011;9489;50.948;3.114;2023-10-08T00:56:14;6.50;;;4.88;;
18720;SDS011;9489;50.948;3.114;2023-10-08T00:58:44;5.55;;;4.47;;
18720;SDS011;9489;50.948;3.114;2023-10-08T01:01:18;5.47;;;4.53;;
18720;SDS011;9489;50.948;3.114;2023-10-08T01:03:46;7.10;;;4.90;;
18720;SDS011;9489;50.948;3.114;2023-10-08T01:06:14;6.05;;;5.15;;
18720;SDS011;9489;50.948;3.114;2023-10-08T01:08:43;7.25;;;4.75;;
18720;SDS011;9489;50.948;3.114;2023-10-08T01:11:20;6.47;;;5.13;;
18720;SDS011;9489;50.948;3.114;2023-10-08T01:14:10;7.18;;;4.57;;
18720;SDS011;9489;50.948;3.114;2023-10-08T01:16:36;7.43;;;4.93;;
18720;SDS011;9489;50.948;3.114;2023-10-08T01:19:04;7.03;;;5.50;;
18720;SDS011;9489;50.948;3.114;2023-10-08T01:21:37;6.82;;;5.28;;
18720;SDS011;9489;50.948;3.114;2023-10-08T01:24:05;7.40;;;5.18;;
18720;SDS011;9489;50.948;3.114;2023-10-08T01:26:32;9.10;;;5.60;;
18720;SDS011;9489;50.948;3.114;2023-10-08T01:29:04;6.35;;;4.95;;
18720;SDS011;9489;50.948;3.114;2023-10-08T01:31:34;6.88;;;4.20;;
18720;SDS011;9489;50.948;3.114;2023-10-08T01:34:01;8.05;;;5.10;;
18720;SDS011;9489;50.948;3.114;2023-10-08T01:36:29;7.10;;;5.40;;
18720;SDS011;9489;50.948;3.114;2023-10-08T01:38:56;6.95;;;5.93;;
18720;SDS011;9489;50.948;3.114;2023-10-08T01:41:22;7.82;;;5.43;;
18720;SDS011;9489;50.948;3.114;2023-10-08T01:43:55;8.20;;;5.53;;
18720;SDS011;9489;50.948;3.114;2023-10-08T01:46:25;8.63;;;5.53;;
18720;SDS011;9489;50.948;3.114;2023-10-08T01:48:51;8.20;;;5.53;;
18720;SDS011;9489;50.948;3.114;2023-10-08T01:51:28;9.60;;;5.93;;
18720;SDS011;9489;50.948;3.114;2023-10-08T01:54:02;7.25;;;5.78;;
18720;SDS011;9489;50.948;3.114;2023-10-08T01:56:34;8.70;;;5.90;;
18720;SDS011;9489;50.948;3.114;2023-10-08T01:59:01;9.18;;;5.75;;
18720;SDS011;9489;50.948;3.114;2023-10-08T02:01:27;6.43;;;5.20;;
18720;SDS011;9489;50.948;3.114;2023-10-08T02:03:53;8.75;;;6.28;;
18720;SDS011;9489;50.948;3.114;2023-10-08T02:06:19;5.95;;;5.22;;
18720;SDS011;9489;50.948;3.114;2023-10-08T02:08:45;7.75;;;5.95;;
18720;SDS011;9489;50.948;3.114;2023-10-08T02:11:12;10.98;;;6.85;;
18720;SDS011;9489;50.948;3.114;2023-10-08T02:13:40;9.05;;;6.00;;
18720;SDS011;9489;50.948;3.114;2023-10-08T02:16:07;7.88;;;5.43;;
18720;SDS011;9489;50.948;3.114;2023-10-08T02:18:33;6.35;;;5.70;;
18720;SDS011;9489;50.948;3.114;2023-10-08T02:20:58;7.93;;;5.13;;
18720;SDS011;9489;50.948;3.114;2023-10-08T02:23:24;6.25;;;4.93;;
18720;SDS011;9489;50.948;3.114;2023-10-08T02:25:50;6.90;;;5.68;;
18720;SDS011;9489;50.948;3.114;2023-10-08T02:28:15;6.70;;;5.28;;
18720;SDS011;9489;50.948;3.114;2023-10-08T02:30:42;7.18;;;4.97;;
18720;SDS011;9489;50.948;3.114;2023-10-08T02:33:08;8.57;;;4.90;;
18720;SDS011;9489;50.948;3.114;2023-10-08T02:35:41;7.18;;;5.47;;
18720;SDS011;9489;50.948;3.114;2023-10-08T02:38:14;8.93;;;6.13;;
18720;SDS011;9489;50.948;3.114;2023-10-08T02:40:42;7.20;;;5.53;;
18720;SDS011;9489;50.948;3.114;2023-10-08T02:43:13;9.48;;;6.22;;
18720;SDS011;9489;50.948;3.114;2023-10-08T02:45:40;7.35;;;5.25;;
18720;SDS011;9489;50.948;3.114;2023-10-08T02:48:09;8.18;;;5.90;;
18720;SDS011;9489;50.948;3.114;2023-10-08T02:50:44;7.25;;;5.72;;
18720;SDS011;9489;50.948;3.114;2023-10-08T02:53:10;6.43;;;5.25;;
18720;SDS011;9489;50.948;3.114;2023-10-08T02:55:37;8.60;;;6.28;;
18720;SDS011;9489;50.948;3.114;2023-10-08T02:58:07;9.05;;;7.10;;
18720;SDS011;9489;50.948;3.114;2023-10-08T03:00:39;6.72;;;5.50;;
18720;SDS011;9489;50.948;3.114;2023-10-08T03:03:06;9.07;;;6.82;;
18720;SDS011;9489;50.948;3.114;2023-10-08T03:05:40;9.50;;;6.50;;
18720;SDS011;9489;50.948;3.114;2023-10-08T03:08:11;7.30;;;5.45;;
18720;SDS011;9489;50.948;3.114;2023-10-08T03:10:38;9.50;;;6.25;;
18720;SDS011;9489;50.948;3.114;2023-10-08T03:13:04;8.73;;;5.80;;
18720;SDS011;9489;50.948;3.114;2023-10-08T03:15:30;7.32;;;5.75;;
18720;SDS011;9489;50.948;3.114;2023-10-08T03:18:05;8.65;;;6.30;;
18720;SDS011;9489;50.948;3.114;2023-10-08T03:20:41;7.40;;;5.93;;
18720;SDS011;9489;50.948;3.114;2023-10-08T03:23:12;7.75;;;5.50;;
18720;SDS011;9489;50.948;3.114;2023-10-08T03:25:57;9.30;;;5.80;;
18720;SDS011;9489;50.948;3.114;2023-10-08T03:28:27;7.95;;;6.60;;
18720;SDS011;9489;50.948;3.114;2023-10-08T03:30:56;8.02;;;6.15;;
18720;SDS011;9489;50.948;3.114;2023-10-08T03:33:38;8.30;;;5.97;;
18720;SDS011;9489;50.948;3.114;2023-10-08T03:36:04;8.05;;;6.07;;
18720;SDS011;9489;50.948;3.114;2023-10-08T03:38:47;7.50;;;6.55;;
18720;SDS011;9489;50.948;3.114;2023-10-08T03:41:17;5.78;;;5.05;;
18720;SDS011;9489;50.948;3.114;2023-10-08T03:43:53;8.40;;;6.60;;
18720;SDS011;9489;50.948;3.114;2023-10-08T03:46:26;8.73;;;6.45;;
18720;SDS011;9489;50.948;3.114;2023-10-08T03:49:04;8.00;;;6.53;;
18720;SDS011;9489;50.948;3.114;2023-10-08T03:51:41;10.13;;;7.00;;
18720;SDS011;9489;50.948;3.114;2023-10-08T03:54:07;8.18;;;6.57;;
18720;SDS011;9489;50.948;3.114;2023-10-08T03:56:44;7.43;;;5.88;;
18720;SDS011;9489;50.948;3.114;2023-10-08T03:59:14;7.70;;;5.78;;
18720;SDS011;9489;50.948;3.114;2023-10-08T04:01:58;6.68;;;5.72;;
18720;SDS011;9489;50.948;3.114;2023-10-08T04:04:39;9.90;;;6.60;;
18720;SDS011;9489;50.948;3.114;2023-10-08T04:07:20;9.93;;;7.20;;
18720;SDS011;9489;50.948;3.114;2023-10-08T04:09:50;7.22;;;6.53;;
18720;SDS011;9489;50.948;3.114;2023-10-08T04:12:30;11.38;;;7.25;;
18720;SDS011;9489;50.948;3.114;2023-10-08T04:14:59;8.40;;;6.07;;
18720;SDS011;9489;50.948;3.114;2023-10-08T04:17:37;7.38;;;6.32;;
18720;SDS011;9489;50.948;3.114;2023-10-08T04:20:10;8.73;;;6.20;;
18720;SDS011;9489;50.948;3.114;2023-10-08T04:22:55;10.35;;;6.93;;
18720;SDS011;9489;50.948;3.114;2023-10-08T04:25:21;8.43;;;7.15;;
18720;SDS011;9489;50.948;3.114;2023-10-08T04:27:47;9.88;;;7.65;;
18720;SDS011;9489;50.948;3.114;2023-10-08T04:30:15;9.88;;;7.80;;
18720;SDS011;9489;50.948;3.114;2023-10-08T04:32:41;8.93;;;5.90;;
18720;SDS011;9489;50.948;3.114;2023-10-08T04:35:07;9.35;;;7.03;;
18720;SDS011;9489;50.948;3.114;2023-10-08T04:37:39;9.70;;;7.95;;
18720;SDS011;9489;50.948;3.114;2023-10-08T04:40:06;10.32;;;7.43;;
18720;SDS011;9489;50.948;3.114;2023-10-08T04:42:41;8.95;;;6.97;;
18720;SDS011;9489;50.948;3.114;2023-10-08T04:45:10;8.45;;;7.65;;
18720;SDS011;9489;50.948;3.114;2023-10-08T04:47:39;8.45;;;6.90;;
18720;SDS011;9489;50.948;3.114;2023-10-08T04:50:07;9.48;;;7.35;;
18720;SDS011;9489;50.948;3.114;2023-10-08T04:52:40;10.50;;;8.73;;
18720;SDS011;9489;50.948;3.114;2023-10-08T04:55:11;11.88;;;8.18;;
18720;SDS011;9489;50.948;3.114;2023-10-08T04:57:45;9.98;;;8.48;;
18720;SDS011;9489;50.948;3.114;2023-10-08T05:00:14;9.10;;;7.93;;
18720;SDS011;9489;50.948;3.114;2023-10-08T05:02:40;7.75;;;6.72;;
18720;SDS011;9489;50.948;3.114;2023-10-08T05:05:15;11.45;;;7.72;;
18720;SDS011;9489;50.948;3.114;2023-10-08T05:07:40;11.45;;;8.20;;
18720;SDS011;9489;50.948;3.114;2023-10-08T05:10:09;9.88;;;7.75;;
18720;SDS011;9489;50.948;3.114;2023-10-08T05:12:56;9.18;;;7.30;;
18720;SDS011;9489;50.948;3.114;2023-10-08T05:15:28;9.00;;;7.35;;
18720;SDS011;9489;50.948;3.114;2023-10-08T05:18:12;12.20;;;7.47;;
18720;SDS011;9489;50.948;3.114;2023-10-08T05:20:48;9.50;;;8.50;;
18720;SDS011;9489;50.948;3.114;2023-10-08T05:23:14;8.88;;;7.95;;
18720;SDS011;9489;50.948;3.114;2023-10-08T05:25:53;10.55;;;8.15;;
18720;SDS011;9489;50.948;3.114;2023-10-08T05:28:31;10.15;;;7.43;;
18720;SDS011;9489;50.948;3.114;2023-10-08T05:31:10;8.38;;;7.15;;
18720;SDS011;9489;50.948;3.114;2023-10-08T05:33:47;9.00;;;7.60;;
18720;SDS011;9489;50.948;3.114;2023-10-08T05:36:12;12.38;;;8.65;;
18720;SDS011;9489;50.948;3.114;2023-10-08T05:38:53;12.00;;;8.98;;
18720;SDS011;9489;50.948;3.114;2023-10-08T05:41:28;10.73;;;8.57;;
18720;SDS011;9489;50.948;3.114;2023-10-08T05:44:04;16.85;;;8.52;;
18720;SDS011;9489;50.948;3.114;2023-10-08T05:46:48;10.02;;;7.93;;
18720;SDS011;9489;50.948;3.114;2023-10-08T05:49:21;9.98;;;8.45;;
18720;SDS011;9489;50.948;3.114;2023-10-08T05:51:55;10.70;;;8.32;;
18720;SDS011;9489;50.948;3.114;2023-10-08T05:54:22;10.10;;;8.10;;
18720;SDS011;9489;50.948;3.114;2023-10-08T05:56:52;10.25;;;8.20;;
18720;SDS011;9489;50.948;3.114;2023-10-08T05:59:36;10.02;;;8.88;;
18720;SDS011;9489;50.948;3.114;2023-10-08T06:05:01;12.27;;;8.82;;
18720;SDS011;9489;50.948;3.114;2023-10-08T06:10:18;9.52;;;8.02;;
18720;SDS011;9489;50.948;3.114;2023-10-08T06:13:12;13.00;;;11.18;;
18720;SDS011;9489;50.948;3.114;2023-10-08T06:15:49;12.05;;;9.50;;
18720;SDS011;9489;50.948;3.114;2023-10-08T06:18:15;11.43;;;9.10;;
18720;SDS011;9489;50.948;3.114;2023-10-08T06:20:43;13.90;;;10.05;;
18720;SDS011;9489;50.948;3.114;2023-10-08T06:23:09;12.40;;;11.10;;
18720;SDS011;9489;50.948;3.114;2023-10-08T06:25:37;11.77;;;10.57;;
18720;SDS011;9489;50.948;3.114;2023-10-08T06:28:15;13.00;;;11.63;;
18720;SDS011;9489;50.948;3.114;2023-10-08T06:30:44;13.07;;;11.50;;
18720;SDS011;9489;50.948;3.114;2023-10-08T06:33:11;13.05;;;11.60;;
18720;SDS011;9489;50.948;3.114;2023-10-08T06:35:36;13.35;;;11.02;;
18720;SDS011;9489;50.948;3.114;2023-10-08T06:38:02;13.20;;;11.85;;
18720;SDS011;9489;50.948;3.114;2023-10-08T06:40:33;13.57;;;11.77;;
18720;SDS011;9489;50.948;3.114;2023-10-08T06:43:05;14.35;;;12.48;;
18720;SDS011;9489;50.948;3.114;2023-10-08T06:45:39;18.15;;;11.82;;
18720;SDS011;9489;50.948;3.114;2023-10-08T06:48:07;14.65;;;11.63;;
18720;SDS011;9489;50.948;3.114;2023-10-08T06:50:34;12.45;;;10.82;;
18720;SDS011;9489;50.948;3.114;2023-10-08T06:53:00;12.38;;;11.15;;
18720;SDS011;9489;50.948;3.114;2023-10-08T06:55:31;11.90;;;9.70;;
18720;SDS011;9489;50.948;3.114;2023-10-08T06:57:59;12.38;;;10.18;;
18720;SDS011;9489;50.948;3.114;2023-10-08T07:00:25;11.68;;;10.50;;
18720;SDS011;9489;50.948;3.114;2023-10-08T07:03:04;11.75;;;10.00;;
18720;SDS011;9489;50.948;3.114;2023-10-08T07:05:32;10.95;;;9.95;;
18720;SDS011;9489;50.948;3.114;2023-10-08T07:08:04;12.85;;;10.00;;
18720;SDS011;9489;50.948;3.114;2023-10-08T07:10:32;12.93;;;11.00;;
18720;SDS011;9489;50.948;3.114;2023-10-08T07:13:01;14.48;;;11.70;;
18720;SDS011;9489;50.948;3.114;2023-10-08T07:15:28;13.68;;;10.25;;
18720;SDS011;9489;50.948;3.114;2023-10-08T07:17:55;11.95;;;10.60;;
18720;SDS011;9489;50.948;3.114;2023-10-08T07:20:21;14.02;;;10.02;;
18720;SDS011;9489;50.948;3.114;2023-10-08T07:22:47;12.15;;;10.70;;
18720;SDS011;9489;50.948;3.114;2023-10-08T07:25:19;11.60;;;10.50;;
18720;SDS011;9489;50.948;3.114;2023-10-08T07:27:46;11.07;;;9.98;;
18720;SDS011;9489;50.948;3.114;2023-10-08T07:30:12;11.57;;;9.55;;
18720;SDS011;9489;50.948;3.114;2023-10-08T07:32:39;13.70;;;9.07;;
18720;SDS011;9489;50.948;3.114;2023-10-08T07:35:04;12.63;;;10.05;;
18720;SDS011;9489;50.948;3.114;2023-10-08T07:37:45;13.15;;;9.38;;
18720;SDS011;9489;50.948;3.114;2023-10-08T07:40:12;12.50;;;9.52;;
18720;SDS011;9489;50.948;3.114;2023-10-08T07:42:39;11.80;;;9.20;;
18720;SDS011;9489;50.948;3.114;2023-10-08T07:45:05;12.23;;;9.55;;
18720;SDS011;9489;50.948;3.114;2023-10-08T07:47:31;9.18;;;8.13;;
18720;SDS011;9489;50.948;3.114;2023-10-08T07:49:56;11.95;;;9.65;;
18720;SDS011;9489;50.948;3.114;2023-10-08T07:52:23;10.40;;;9.38;;
18720;SDS011;9489;50.948;3.114;2023-10-08T07:54:49;11.82;;;9.40;;
18720;SDS011;9489;50.948;3.114;2023-10-08T07:57:15;10.52;;;8.77;;
18720;SDS011;9489;50.948;3.114;2023-10-08T07:59:51;11.48;;;9.23;;
18720;SDS011;9489;50.948;3.114;2023-10-08T08:02:20;11.57;;;8.23;;
18720;SDS011;9489;50.948;3.114;2023-10-08T08:04:51;9.35;;;8.45;;
18720;SDS011;9489;50.948;3.114;2023-10-08T08:07:18;12.90;;;9.23;;
18720;SDS011;9489;50.948;3.114;2023-10-08T08:09:48;11.00;;;9.02;;
18720;SDS011;9489;50.948;3.114;2023-10-08T08:12:36;10.95;;;9.02;;
18720;SDS011;9489;50.948;3.114;2023-10-08T08:15:03;8.85;;;7.82;;
18720;SDS011;9489;50.948;3.114;2023-10-08T08:17:40;8.52;;;7.05;;
18720;SDS011;9489;50.948;3.114;2023-10-08T08:20:06;9.10;;;7.28;;
18720;SDS011;9489;50.948;3.114;2023-10-08T08:22:42;10.73;;;8.10;;
18720;SDS011;9489;50.948;3.114;2023-10-08T08:25:14;9.93;;;7.65;;
18720;SDS011;9489;50.948;3.114;2023-10-08T08:27:58;9.60;;;7.68;;
18720;SDS011;9489;50.948;3.114;2023-10-08T08:30:24;11.50;;;7.47;;
18720;SDS011;9489;50.948;3.114;2023-10-08T08:32:51;9.13;;;8.15;;
18720;SDS011;9489;50.948;3.114;2023-10-08T08:35:17;9.20;;;7.10;;
18720;SDS011;9489;50.948;3.114;2023-10-08T08:37:45;9.65;;;8.55;;
18720;SDS011;9489;50.948;3.114;2023-10-08T08:40:17;8.48;;;7.25;;
18720;SDS011;9489;50.948;3.114;2023-10-08T08:42:49;8.38;;;7.53;;
18720;SDS011;9489;50.948;3.114;2023-10-08T08:45:20;11.55;;;7.70;;
18720;SDS011;9489;50.948;3.114;2023-10-08T08:47:47;9.00;;;7.55;;
18720;SDS011;9489;50.948;3.114;2023-10-08T08:50:13;8.50;;;7.38;;
18720;SDS011;9489;50.948;3.114;2023-10-08T08:52:39;8.48;;;7.50;;
18720;SDS011;9489;50.948;3.114;2023-10-08T08:55:06;9.93;;;7.88;;
18720;SDS011;9489;50.948;3.114;2023-10-08T08:57:40;11.55;;;8.85;;
18720;SDS011;9489;50.948;3.114;2023-10-08T09:00:19;9.65;;;8.20;;
18720;SDS011;9489;50.948;3.114;2023-10-08T09:02:45;8.88;;;8.07;;
18720;SDS011;9489;50.948;3.114;2023-10-08T09:05:12;8.65;;;7.82;;
18720;SDS011;9489;50.948;3.114;2023-10-08T09:08:06;9.18;;;7.55;;
18720;SDS011;9489;50.948;3.114;2023-10-08T09:10:33;8.43;;;7.63;;
18720;SDS011;9489;50.948;3.114;2023-10-08T09:13:05;8.95;;;7.22;;
18720;SDS011;9489;50.948;3.114;2023-10-08T09:15:36;11.32;;;8.15;;
18720;SDS011;9489;50.948;3.114;2023-10-08T09:18:03;8.38;;;6.85;;
18720;SDS011;9489;50.948;3.114;2023-10-08T09:20:29;10.27;;;7.93;;
18720;SDS011;9489;50.948;3.114;2023-10-08T09:25:42;12.82;;;8.70;;
18720;SDS011;9489;50.948;3.114;2023-10-08T09:28:15;8.65;;;7.65;;
18720;SDS011;9489;50.948;3.114;2023-10-08T09:30:41;13.98;;;8.43;;
18720;SDS011;9489;50.948;3.114;2023-10-08T09:33:10;8.77;;;7.53;;
18720;SDS011;9489;50.948;3.114;2023-10-08T09:35:42;9.63;;;8.27;;
18720;SDS011;9489;50.948;3.114;2023-10-08T09:38:08;8.60;;;7.80;;
18720;SDS011;9489;50.948;3.114;2023-10-08T09:40:38;11.07;;;8.73;;
18720;SDS011;9489;50.948;3.114;2023-10-08T09:43:06;8.10;;;7.28;;
18720;SDS011;9489;50.948;3.114;2023-10-08T09:45:37;8.93;;;6.82;;
18720;SDS011;9489;50.948;3.114;2023-10-08T09:48:07;8.55;;;7.75;;
18720;SDS011;9489;50.948;3.114;2023-10-08T09:50:38;8.23;;;7.43;;
18720;SDS011;9489;50.948;3.114;2023-10-08T09:53:10;8.45;;;7.65;;
18720;SDS011;9489;50.948;3.114;2023-10-08T09:55:45;10.63;;;7.78;;
18720;SDS011;9489;50.948;3.114;2023-10-08T09:58:19;9.15;;;7.82;;
18720;SDS011;9489;50.948;3.114;2023-10-08T10:00:48;8.77;;;7.22;;
18720;SDS011;9489;50.948;3.114;2023-10-08T10:03:15;8.98;;;8.05;;
18720;SDS011;9489;50.948;3.114;2023-10-08T10:05:43;8.50;;;7.43;;
18720;SDS011;9489;50.948;3.114;2023-10-08T10:08:10;8.55;;;7.78;;
18720;SDS011;9489;50.948;3.114;2023-10-08T10:10:36;9.80;;;8.77;;
18720;SDS011;9489;50.948;3.114;2023-10-08T10:13:06;8.65;;;7.90;;
18720;SDS011;9489;50.948;3.114;2023-10-08T10:15:38;10.60;;;9.50;;
18720;SDS011;9489;50.948;3.114;2023-10-08T10:18:12;8.35;;;7.00;;
18720;SDS011;9489;50.948;3.114;2023-10-08T10:21:00;9.88;;;8.27;;
18720;SDS011;9489;50.948;3.114;2023-10-08T10:23:46;8.85;;;7.95;;
18720;SDS011;9489;50.948;3.114;2023-10-08T10:31:41;8.52;;;7.43;;
18720;SDS011;9489;50.948;3.114;2023-10-08T10:34:18;10.02;;;7.60;;
18720;SDS011;9489;50.948;3.114;2023-10-08T10:36:57;10.57;;;8.27;;
18720;SDS011;9489;50.948;3.114;2023-10-08T10:39:42;8.90;;;7.60;;
18720;SDS011;9489;50.948;3.114;2023-10-08T10:42:07;8.98;;;8.07;;
18720;SDS011;9489;50.948;3.114;2023-10-08T10:44:45;9.77;;;8.77;;
18720;SDS011;9489;50.948;3.114;2023-10-08T10:47:14;11.10;;;8.35;;
18720;SDS011;9489;50.948;3.114;2023-10-08T10:49:40;9.48;;;8.57;;
18720;SDS011;9489;50.948;3.114;2023-10-08T10:52:16;9.18;;;8.05;;
18720;SDS011;9489;50.948;3.114;2023-10-08T10:55:03;8.73;;;7.82;;
18720;SDS011;9489;50.948;3.114;2023-10-08T10:57:39;9.88;;;8.45;;
18720;SDS011;9489;50.948;3.114;2023-10-08T11:00:06;11.98;;;8.77;;
18720;SDS011;9489;50.948;3.114;2023-10-08T11:02:51;11.32;;;8.38;;
18720;SDS011;9489;50.948;3.114;2023-10-08T11:05:18;13.95;;;12.48;;
18720;SDS011;9489;50.948;3.114;2023-10-08T11:07:53;8.82;;;8.02;;
18720;SDS011;9489;50.948;3.114;2023-10-08T11:10:23;9.80;;;8.13;;
18720;SDS011;9489;50.948;3.114;2023-10-08T11:12:49;9.32;;;8.48;;
18720;SDS011;9489;50.948;3.114;2023-10-08T11:15:18;10.35;;;9.35;;
18720;SDS011;9489;50.948;3.114;2023-10-08T11:17:44;9.70;;;8.73;;
18720;SDS011;9489;50.948;3.114;2023-10-08T11:20:27;9.10;;;8.20;;
18720;SDS011;9489;50.948;3.114;2023-10-08T11:22:54;8.23;;;7.32;;
18720;SDS011;9489;50.948;3.114;2023-10-08T11:25:23;9.40;;;7.55;;
18720;SDS011;9489;50.948;3.114;2023-10-08T11:27:55;8.88;;;7.97;;
18720;SDS011;9489;50.948;3.114;2023-10-08T11:30:27;8.98;;;8.10;;
18720;SDS011;9489;50.948;3.114;2023-10-08T11:32:59;8.90;;;8.00;;
18720;SDS011;9489;50.948;3.114;2023-10-08T11:35:25;10.13;;;8.30;;
18720;SDS011;9489;50.948;3.114;2023-10-08T11:37:52;10.15;;;9.10;;
18720;SDS011;9489;50.948;3.114;2023-10-08T11:40:26;9.30;;;7.75;;
18720;SDS011;9489;50.948;3.114;2023-10-08T11:43:12;9.80;;;8.80;;
18720;SDS011;9489;50.948;3.114;2023-10-08T11:45:41;8.88;;;7.97;;
18720;SDS011;9489;50.948;3.114;2023-10-08T11:48:13;9.07;;;8.23;;
18720;SDS011;9489;50.948;3.114;2023-10-08T11:50:42;10.20;;;8.88;;
18720;SDS011;9489;50.948;3.114;2023-10-08T11:53:08;9.73;;;8.60;;
18720;SDS011;9489;50.948;3.114;2023-10-08T11:55:37;9.98;;;8.50;;
18720;SDS011;9489;50.948;3.114;2023-10-08T11:58:07;8.85;;;8.02;;
18720;SDS011;9489;50.948;3.114;2023-10-08T12:00:40;10.43;;;8.55;;
18720;SDS011;9489;50.948;3.114;2023-10-08T12:03:11;9.82;;;8.88;;
18720;SDS011;9489;50.948;3.114;2023-10-08T12:05:37;9.30;;;8.35;;
18720;SDS011;9489;50.948;3.114;2023-10-08T12:08:12;9.63;;;8.43;;
18720;SDS011;9489;50.948;3.114;2023-10-08T12:10:47;12.85;;;8.27;;
18720;SDS011;9489;50.948;3.114;2023-10-08T12:13:19;9.27;;;7.13;;
18720;SDS011;9489;50.948;3.114;2023-10-08T12:15:49;9.32;;;8.20;;
18720;SDS011;9489;50.948;3.114;2023-10-08T12:18:16;10.77;;;8.27;;
18720;SDS011;9489;50.948;3.114;2023-10-08T12:20:52;8.82;;;7.93;;
18720;SDS011;9489;50.948;3.114;2023-10-08T12:23:19;7.88;;;6.95;;
18720;SDS011;9489;50.948;3.114;2023-10-08T12:25:53;8.48;;;6.80;;
18720;SDS011;9489;50.948;3.114;2023-10-08T12:28:23;8.95;;;7.57;;
18720;SDS011;9489;50.948;3.114;2023-10-08T12:30:50;7.93;;;7.18;;
18720;SDS011;9489;50.948;3.114;2023-10-08T12:33:21;8.55;;;7.32;;
18720;SDS011;9489;50.948;3.114;2023-10-08T12:35:49;8.07;;;7.30;;
18720;SDS011;9489;50.948;3.114;2023-10-08T12:38:22;7.95;;;7.10;;
18720;SDS011;9489;50.948;3.114;2023-10-08T12:40:48;7.75;;;6.88;;
18720;SDS011;9489;50.948;3.114;2023-10-08T12:43:18;8.05;;;5.97;;
18720;SDS011;9489;50.948;3.114;2023-10-08T12:45:47;9.48;;;6.75;;
18720;SDS011;9489;50.948;3.114;2023-10-08T12:48:25;8.00;;;6.30;;
18720;SDS011;9489;50.948;3.114;2023-10-08T12:50:52;7.30;;;6.45;;
18720;SDS011;9489;50.948;3.114;2023-10-08T12:53:21;6.93;;;6.22;;
18720;SDS011;9489;50.948;3.114;2023-10-08T12:56:07;9.13;;;7.15;;
18720;SDS011;9489;50.948;3.114;2023-10-08T12:58:46;8.32;;;6.38;;
18720;SDS011;9489;50.948;3.114;2023-10-08T13:01:18;7.57;;;6.70;;
18720;SDS011;9489;50.948;3.114;2023-10-08T13:03:45;8.32;;;5.90;;
18720;SDS011;9489;50.948;3.114;2023-10-08T13:06:15;7.68;;;6.38;;
18720;SDS011;9489;50.948;3.114;2023-10-08T13:08:53;6.88;;;5.93;;
18720;SDS011;9489;50.948;3.114;2023-10-08T13:11:20;6.80;;;6.10;;
18720;SDS011;9489;50.948;3.114;2023-10-08T13:13:50;8.00;;;5.85;;
18720;SDS011;9489;50.948;3.114;2023-10-08T13:16:17;6.70;;;5.50;;
18720;SDS011;9489;50.948;3.114;2023-10-08T13:18:46;6.72;;;6.13;;
18720;SDS011;9489;50.948;3.114;2023-10-08T13:21:15;7.32;;;6.68;;
18720;SDS011;9489;50.948;3.114;2023-10-08T13:23:41;9.63;;;6.35;;
18720;SDS011;9489;50.948;3.114;2023-10-08T13:26:07;8.57;;;6.15;;
18720;SDS011;9489;50.948;3.114;2023-10-08T13:28:36;6.75;;;6.13;;
18720;SDS011;9489;50.948;3.114;2023-10-08T13:31:02;6.95;;;5.47;;
18720;SDS011;9489;50.948;3.114;2023-10-08T13:33:37;6.57;;;5.97;;
18720;SDS011;9489;50.948;3.114;2023-10-08T13:36:05;7.65;;;6.18;;
18720;SDS011;9489;50.948;3.114;2023-10-08T13:38:34;6.07;;;5.47;;
18720;SDS011;9489;50.948;3.114;2023-10-08T13:41:05;7.53;;;5.85;;
18720;SDS011;9489;50.948;3.114;2023-10-08T13:43:43;5.85;;;5.25;;
18720;SDS011;9489;50.948;3.114;2023-10-08T13:46:14;6.32;;;5.72;;
18720;SDS011;9489;50.948;3.114;2023-10-08T13:48:43;6.43;;;5.25;;
18720;SDS011;9489;50.948;3.114;2023-10-08T13:51:18;7.70;;;6.05;;
18720;SDS011;9489;50.948;3.114;2023-10-08T13:53:55;7.18;;;5.53;;
18720;SDS011;9489;50.948;3.114;2023-10-08T13:56:25;6.72;;;6.03;;
18720;SDS011;9489;50.948;3.114;2023-10-08T13:58:52;6.43;;;5.78;;
18720;SDS011;9489;50.948;3.114;2023-10-08T14:01:29;6.40;;;5.55;;
18720;SDS011;9489;50.948;3.114;2023-10-08T14:03:58;8.32;;;6.88;;
18720;SDS011;9489;50.948;3.114;2023-10-08T14:06:30;7.70;;;5.38;;
18720;SDS011;9489;50.948;3.114;2023-10-08T14:08:56;9.20;;;6.85;;
18720;SDS011;9489;50.948;3.114;2023-10-08T14:11:22;9.02;;;7.68;;
18720;SDS011;9489;50.948;3.114;2023-10-08T14:13:55;7.35;;;5.43;;
18720;SDS011;9489;50.948;3.114;2023-10-08T14:16:27;8.88;;;5.43;;
18720;SDS011;9489;50.948;3.114;2023-10-08T14:18:57;9.35;;;6.22;;
18720;SDS011;9489;50.948;3.114;2023-10-08T14:21:25;7.80;;;5.70;;
18720;SDS011;9489;50.948;3.114;2023-10-08T14:23:55;6.15;;;5.20;;
18720;SDS011;9489;50.948;3.114;2023-10-08T14:26:27;7.78;;;5.60;;
18720;SDS011;9489;50.948;3.114;2023-10-08T14:29:00;6.47;;;5.32;;
18720;SDS011;9489;50.948;3.114;2023-10-08T14:31:32;6.85;;;4.90;;
18720;SDS011;9489;50.948;3.114;2023-10-08T14:33:59;6.22;;;5.45;;
18720;SDS011;9489;50.948;3.114;2023-10-08T14:36:44;6.95;;;6.25;;
18720;SDS011;9489;50.948;3.114;2023-10-08T14:39:32;10.02;;;8.15;;
18720;SDS011;9489;50.948;3.114;2023-10-08T14:42:27;6.95;;;6.25;;
18720;SDS011;9489;50.948;3.114;2023-10-08T14:45:11;9.32;;;8.18;;
18720;SDS011;9489;50.948;3.114;2023-10-08T14:47:38;8.25;;;6.13;;
18720;SDS011;9489;50.948;3.114;2023-10-08T14:50:04;6.90;;;6.05;;
18720;SDS011;9489;50.948;3.114;2023-10-08T14:52:31;7.32;;;6.07;;
18720;SDS011;9489;50.948;3.114;2023-10-08T14:54:58;6.47;;;5.88;;
18720;SDS011;9489;50.948;3.114;2023-10-08T14:57:24;9.60;;;8.48;;
18720;SDS011;9489;50.948;3.114;2023-10-08T14:59:51;6.80;;;6.20;;
18720;SDS011;9489;50.948;3.114;2023-10-08T15:02:17;8.50;;;6.00;;
18720;SDS011;9489;50.948;3.114;2023-10-08T15:04:43;7.47;;;5.43;;
18720;SDS011;9489;50.948;3.114;2023-10-08T15:07:09;7.10;;;6.13;;
18720;SDS011;9489;50.948;3.114;2023-10-08T15:09:42;7.00;;;5.10;;
18720;SDS011;9489;50.948;3.114;2023-10-08T15:12:09;7.68;;;6.50;;
18720;SDS011;9489;50.948;3.114;2023-10-08T15:14:35;8.38;;;6.22;;
18720;SDS011;9489;50.948;3.114;2023-10-08T15:17:03;6.75;;;5.28;;
18720;SDS011;9489;50.948;3.114;2023-10-08T15:19:30;6.55;;;5.30;;
18720;SDS011;9489;50.948;3.114;2023-10-08T15:21:56;5.40;;;4.90;;
18720;SDS011;9489;50.948;3.114;2023-10-08T15:24:23;5.53;;;4.70;;
18720;SDS011;9489;50.948;3.114;2023-10-08T15:26:50;5.30;;;4.82;;
18720;SDS011;9489;50.948;3.114;2023-10-08T15:29:20;5.85;;;4.63;;
18720;SDS011;9489;50.948;3.114;2023-10-08T15:31:47;6.25;;;5.68;;
18720;SDS011;9489;50.948;3.114;2023-10-08T15:34:14;6.60;;;5.63;;